createdAt,value
2023-03-26T00:02:07.355Z,6.65
2023-03-26T00:05:49.722Z,6.82
2023-03-26T00:09:31.782Z,5.43
2023-03-26T00:13:13.747Z,7.10
2023-03-26T00:16:55.709Z,3.35
2023-03-26T00:20:38.469Z,6.00
2023-03-26T00:24:20.365Z,4.70
2023-03-26T00:28:03.899Z,4.07
2023-03-26T00:31:46.561Z,6.97
2023-03-26T00:35:29.979Z,3.27
2023-03-26T00:39:11.972Z,5.60
2023-03-26T00:42:53.882Z,3.55
2023-03-26T00:46:36.543Z,2.40
2023-03-26T00:50:18.551Z,2.95
2023-03-26T00:54:00.826Z,2.67
2023-03-26T00:57:42.785Z,6.18
2023-03-26T01:01:27.700Z,3.95
2023-03-26T01:05:35.603Z,3.45
2023-03-26T01:09:19.127Z,4.93
2023-03-26T01:13:01.257Z,3.40
2023-03-26T01:17:04.079Z,4.25
2023-03-26T01:20:49.803Z,4.68
2023-03-26T01:24:32.041Z,3.63
2023-03-26T01:28:14.670Z,2.40
2023-03-26T01:32:40.054Z,3.60
2023-03-26T01:36:39.478Z,4.10
2023-03-26T01:40:47.101Z,7.50
2023-03-26T01:44:45.196Z,3.97
2023-03-26T01:48:33.575Z,1.88
2023-03-26T01:52:22.527Z,3.33
2023-03-26T01:56:18.954Z,3.22
2023-03-26T02:00:09.023Z,2.05
2023-03-26T02:03:57.612Z,1.87
2023-03-26T02:07:39.523Z,2.03
2023-03-26T02:11:23.249Z,2.05
2023-03-26T02:15:06.171Z,3.13
2023-03-26T02:18:51.590Z,3.17
2023-03-26T02:22:33.510Z,2.22
2023-03-26T02:26:18.028Z,2.03
2023-03-26T02:29:59.943Z,2.83
2023-03-26T02:33:44.727Z,3.00
2023-03-26T02:37:26.598Z,3.70
2023-03-26T02:41:08.636Z,4.20
2023-03-26T02:44:50.732Z,1.90
2023-03-26T02:48:34.761Z,4.53
2023-03-26T02:52:18.723Z,2.93
2023-03-26T02:56:01.103Z,2.20
2023-03-26T02:59:43.050Z,1.95
2023-03-26T03:03:26.691Z,2.60
2023-03-26T03:07:08.727Z,4.17
2023-03-26T03:11:25.138Z,1.98
2023-03-26T03:15:08.394Z,3.15
2023-03-26T03:18:54.975Z,2.63
2023-03-26T03:22:37.598Z,2.20
2023-03-26T03:26:23.317Z,2.58
2023-03-26T03:30:06.223Z,5.33
2023-03-26T03:33:48.180Z,2.42
2023-03-26T03:37:30.209Z,2.90
2023-03-26T03:41:12.302Z,2.50
2023-03-26T03:44:54.337Z,2.27
2023-03-26T03:48:38.358Z,3.03
2023-03-26T03:52:20.289Z,2.17
2023-03-26T03:56:02.248Z,2.00
2023-03-26T03:59:47.958Z,2.83
2023-03-26T04:03:33.635Z,1.50
2023-03-26T04:07:16.648Z,1.87
2023-03-26T04:10:58.861Z,3.05
2023-03-26T04:14:40.792Z,2.45
2023-03-26T04:18:23.430Z,2.72
2023-03-26T04:22:05.407Z,2.23
2023-03-26T04:25:54.112Z,1.88
2023-03-26T04:29:45.493Z,2.03
2023-03-26T04:33:29.682Z,1.20
2023-03-26T04:37:19.972Z,2.28
2023-03-26T04:41:04.042Z,3.13
2023-03-26T04:44:52.418Z,2.17
2023-03-26T04:48:34.311Z,2.03
2023-03-26T04:52:16.285Z,1.33
2023-03-26T04:56:03.752Z,2.05
2023-03-26T04:59:45.745Z,2.83
2023-03-26T05:03:31.955Z,2.72
2023-03-26T05:07:20.064Z,2.38
2023-03-26T05:11:01.988Z,3.67
2023-03-26T05:14:43.920Z,2.65
2023-03-26T05:18:26.008Z,1.65
2023-03-26T05:22:07.905Z,2.00
2023-03-26T05:25:49.912Z,2.30
2023-03-26T05:29:32.128Z,4.60
2023-03-26T05:33:14.466Z,2.25
2023-03-26T05:36:56.947Z,2.87
2023-03-26T05:40:38.943Z,1.70
2023-03-26T05:44:20.856Z,1.60
2023-03-26T05:48:02.811Z,1.60
2023-03-26T05:51:44.723Z,1.23
2023-03-26T05:55:27.836Z,2.03
2023-03-26T05:59:09.761Z,1.80
2023-03-26T06:02:51.999Z,1.40
2023-03-26T06:06:39.334Z,2.42
2023-03-26T06:10:21.273Z,2.17
2023-03-26T06:14:03.134Z,1.83
2023-03-26T06:17:45.123Z,1.85
2023-03-26T06:21:28.080Z,2.30
2023-03-26T06:25:10.052Z,2.43
2023-03-26T06:28:51.958Z,2.17
2023-03-26T06:32:33.854Z,3.13
2023-03-26T06:36:15.906Z,3.23
2023-03-26T06:39:57.857Z,3.03
2023-03-26T06:43:39.985Z,2.80
2023-03-26T06:47:21.933Z,2.60
2023-03-26T06:51:04.002Z,2.80
2023-03-26T06:54:46.101Z,2.60
2023-03-26T06:58:28.026Z,3.50
2023-03-26T07:14:54.123Z,4.37
2023-03-26T07:18:36.212Z,3.42
2023-03-26T07:22:54.709Z,3.75
2023-03-26T07:31:00.472Z,2.95
2023-03-26T07:35:13.659Z,3.40
2023-03-26T07:39:40.304Z,2.45
2023-03-26T07:43:25.564Z,4.37
2023-03-26T07:47:54.072Z,5.30
2023-03-26T07:52:07.873Z,4.88
2023-03-26T08:10:10.650Z,6.13
2023-03-26T08:56:36.917Z,2.30
2023-03-26T09:00:55.308Z,4.68
2023-03-26T09:55:59.266Z,1.50
2023-03-26T10:57:09.904Z,2.25
2023-03-26T11:01:37.827Z,2.70
2023-03-26T11:05:48.305Z,2.95
2023-03-26T11:27:34.073Z,3.20
2023-03-26T11:32:02.072Z,3.27
2023-03-26T11:36:15.479Z,4.13
2023-03-26T11:39:59.343Z,3.28
2023-03-26T11:47:55.525Z,2.75
2023-03-26T11:52:02.963Z,3.28
2023-03-26T12:00:18.528Z,3.17
2023-03-26T12:04:29.312Z,3.40
2023-03-26T12:12:37.708Z,3.40
2023-03-26T12:16:45.633Z,3.17
2023-03-26T12:20:32.528Z,3.58
2023-03-26T12:25:00.654Z,5.65
2023-03-26T12:29:18.322Z,9.57
2023-03-26T12:38:11.561Z,16.92
2023-03-26T12:43:51.379Z,14.60
2023-03-26T12:47:57.980Z,14.07
2023-03-26T13:04:01.132Z,11.60
2023-03-26T13:22:09.985Z,8.73
2023-03-26T13:34:42.738Z,7.00
2023-03-26T13:56:09.767Z,11.07
2023-03-26T14:28:33.168Z,11.07
2023-03-26T14:37:34.299Z,11.43
2023-03-26T14:56:43.059Z,9.23
2023-03-26T15:10:15.393Z,11.80
2023-03-26T15:23:46.879Z,11.60
2023-03-26T15:28:16.338Z,11.18
2023-03-26T15:50:48.921Z,12.27
2023-03-26T15:55:17.326Z,12.83
2023-03-26T15:59:06.183Z,14.00
2023-03-26T16:03:31.090Z,16.20
2023-03-26T16:07:42.020Z,16.00
2023-03-26T16:16:43.060Z,9.63
2023-03-26T16:21:31.867Z,11.30
2023-03-26T16:25:43.364Z,11.50
2023-03-26T16:29:28.673Z,15.63
2023-03-26T16:42:36.498Z,11.32
2023-03-26T16:56:07.330Z,9.20
2023-03-26T17:04:20.699Z,13.55
2023-03-26T17:08:35.640Z,9.33
2023-03-26T17:21:10.033Z,16.57
2023-03-26T17:25:27.167Z,11.10
2023-03-26T17:29:54.450Z,11.98
2023-03-26T17:33:39.200Z,14.02
2023-03-26T17:38:08.160Z,12.73
2023-03-26T17:42:19.587Z,8.13
2023-03-26T17:46:04.633Z,11.85
2023-03-26T17:58:23.649Z,9.70
2023-03-26T18:02:36.787Z,12.50
2023-03-26T18:33:20.242Z,10.03
2023-03-26T18:37:31.794Z,15.98
2023-03-26T18:45:34.386Z,16.87
2023-03-26T18:49:17.430Z,10.65
2023-03-26T18:53:00.650Z,11.73
2023-03-26T18:56:43.715Z,18.97
2023-03-26T19:00:28.728Z,15.55
2023-03-26T19:04:13.127Z,11.25
2023-03-26T19:07:56.319Z,16.02
2023-03-26T19:11:41.788Z,10.10
2023-03-26T19:15:26.680Z,16.27
2023-03-26T19:19:08.635Z,11.98
2023-03-26T19:22:51.357Z,14.00
2023-03-26T19:26:34.180Z,8.07
2023-03-26T19:30:29.958Z,9.05
2023-03-26T19:34:21.678Z,13.67
2023-03-26T19:38:22.437Z,12.18
2023-03-26T19:42:06.613Z,15.20
2023-03-26T19:46:00.067Z,16.58
2023-03-26T19:49:49.678Z,12.90
2023-03-26T19:53:37.411Z,15.35
2023-03-26T19:57:19.905Z,13.00
2023-03-26T20:01:02.716Z,18.47
2023-03-26T20:04:44.960Z,16.70
2023-03-26T20:08:27.204Z,16.73
2023-03-26T20:12:09.358Z,14.10
2023-03-26T20:16:05.603Z,19.20
2023-03-26T20:19:48.965Z,16.02
2023-03-26T20:23:31.042Z,16.52
2023-03-26T20:27:14.095Z,14.73
2023-03-26T20:30:56.420Z,11.25
2023-03-26T20:34:38.605Z,14.23
2023-03-26T20:38:26.520Z,11.13
2023-03-26T20:42:16.120Z,10.68
2023-03-26T20:45:58.858Z,11.05
2023-03-26T20:49:41.198Z,11.47
2023-03-26T20:53:23.977Z,12.45
2023-03-26T20:57:05.923Z,10.82
2023-03-26T21:00:49.295Z,13.23
2023-03-26T21:04:32.232Z,20.50
2023-03-26T21:08:19.825Z,15.88
2023-03-26T21:12:06.239Z,14.40
2023-03-26T21:15:49.137Z,12.90
2023-03-26T21:19:31.888Z,16.85
2023-03-26T21:23:24.903Z,14.90
2023-03-26T21:27:36.154Z,17.37
2023-03-26T21:31:24.285Z,15.52
2023-03-26T21:35:07.147Z,12.30
2023-03-26T21:38:50.596Z,14.82
2023-03-26T21:42:32.939Z,17.40
2023-03-26T21:46:15.184Z,19.40
2023-03-26T21:49:57.404Z,14.50
2023-03-26T21:53:42.540Z,13.00
2023-03-26T21:58:02.809Z,13.98
2023-03-26T22:01:56.947Z,13.98
2023-03-26T22:06:07.520Z,17.37
2023-03-26T22:09:50.309Z,14.48
2023-03-26T22:13:32.231Z,14.68
2023-03-26T22:17:14.345Z,17.23
2023-03-26T22:20:57.908Z,12.07
2023-03-26T22:24:40.495Z,18.58
2023-03-26T22:28:22.631Z,14.20
2023-03-26T22:32:05.042Z,11.47
2023-03-26T22:35:47.602Z,13.43
2023-03-26T22:39:29.686Z,14.98
2023-03-26T22:43:11.671Z,13.10
2023-03-26T22:46:54.592Z,13.10
2023-03-26T22:50:36.913Z,15.02
2023-03-26T22:54:19.041Z,14.02
2023-03-26T22:58:01.029Z,12.77
2023-03-26T23:01:45.940Z,11.07
2023-03-26T23:05:28.660Z,11.73
2023-03-26T23:09:10.667Z,11.00
2023-03-26T23:12:53.261Z,12.13
2023-03-26T23:16:35.265Z,12.32
2023-03-26T23:20:17.362Z,12.30
2023-03-26T23:23:59.506Z,12.07
2023-03-26T23:27:41.630Z,13.70
2023-03-26T23:31:25.510Z,11.82
2023-03-26T23:35:07.877Z,10.60
2023-03-26T23:38:51.313Z,12.48
2023-03-26T23:42:34.675Z,14.60
2023-03-26T23:46:18.267Z,10.10
2023-03-26T23:50:02.560Z,8.98
2023-03-26T23:53:44.534Z,11.25
2023-03-26T23:57:27.333Z,11.50
